sensor_id;sensor_type;location;lat;lon;timestamp;P1;durP1;ratioP1;P2;durP2;ratioP2
28170;SDS011;15458;53.346;-1.688;2023-06-14T00:01:35;15.48;;;5.25;;
28170;SDS011;15458;53.346;-1.688;2023-06-14T00:04:01;7.72;;;4.30;;
28170;SDS011;15458;53.346;-1.688;2023-06-14T00:06:28;11.73;;;4.80;;
28170;SDS011;15458;53.346;-1.688;2023-06-14T00:08:54;11.80;;;4.97;;
28170;SDS011;15458;53.346;-1.688;2023-06-14T00:11:20;10.23;;;4.70;;
28170;SDS011;15458;53.346;-1.688;2023-06-14T00:13:46;9.75;;;4.97;;
28170;SDS011;15458;53.346;-1.688;2023-06-14T00:16:11;13.50;;;4.85;;
28170;SDS011;15458;53.346;-1.688;2023-06-14T00:18:37;13.65;;;5.93;;
28170;SDS011;15458;53.346;-1.688;2023-06-14T00:21:03;11.43;;;4.75;;
28170;SDS011;15458;53.346;-1.688;2023-06-14T00:23:30;10.50;;;4.80;;
28170;SDS011;15458;53.346;-1.688;2023-06-14T00:25:55;14.70;;;5.10;;
28170;SDS011;15458;53.346;-1.688;2023-06-14T00:28:21;10.02;;;4.43;;
28170;SDS011;15458;53.346;-1.688;2023-06-14T00:30:47;8.70;;;4.20;;
28170;SDS011;15458;53.346;-1.688;2023-06-14T00:33:13;9.48;;;4.72;;
28170;SDS011;15458;53.346;-1.688;2023-06-14T00:35:38;10.45;;;3.67;;
28170;SDS011;15458;53.346;-1.688;2023-06-14T00:38:05;12.93;;;4.43;;
28170;SDS011;15458;53.346;-1.688;2023-06-14T00:40:30;11.65;;;4.15;;
28170;SDS011;15458;53.346;-1.688;2023-06-14T00:42:56;8.18;;;4.43;;
28170;SDS011;15458;53.346;-1.688;2023-06-14T00:45:22;11.13;;;4.13;;
28170;SDS011;15458;53.346;-1.688;2023-06-14T00:47:47;12.95;;;4.68;;
28170;SDS011;15458;53.346;-1.688;2023-06-14T00:50:17;13.82;;;4.30;;
28170;SDS011;15458;53.346;-1.688;2023-06-14T00:52:45;11.43;;;3.58;;
28170;SDS011;15458;53.346;-1.688;2023-06-14T00:55:11;10.65;;;4.13;;
28170;SDS011;15458;53.346;-1.688;2023-06-14T00:57:36;12.18;;;4.38;;
28170;SDS011;15458;53.346;-1.688;2023-06-14T01:00:03;9.70;;;4.30;;
28170;SDS011;15458;53.346;-1.688;2023-06-14T01:02:33;12.50;;;4.28;;
28170;SDS011;15458;53.346;-1.688;2023-06-14T01:05:01;11.30;;;3.85;;
28170;SDS011;15458;53.346;-1.688;2023-06-14T01:07:41;9.63;;;4.10;;
28170;SDS011;15458;53.346;-1.688;2023-06-14T01:11:07;11.07;;;4.60;;
28170;SDS011;15458;53.346;-1.688;2023-06-14T01:13:53;11.02;;;5.00;;
28170;SDS011;15458;53.346;-1.688;2023-06-14T01:16:20;12.43;;;4.10;;
28170;SDS011;15458;53.346;-1.688;2023-06-14T01:18:46;10.45;;;4.80;;
28170;SDS011;15458;53.346;-1.688;2023-06-14T01:21:21;11.40;;;5.28;;
28170;SDS011;15458;53.346;-1.688;2023-06-14T01:23:47;15.77;;;4.97;;
28170;SDS011;15458;53.346;-1.688;2023-06-14T01:26:17;11.07;;;4.97;;
28170;SDS011;15458;53.346;-1.688;2023-06-14T01:28:44;10.93;;;4.80;;
28170;SDS011;15458;53.346;-1.688;2023-06-14T01:31:13;8.43;;;5.07;;
28170;SDS011;15458;53.346;-1.688;2023-06-14T01:33:42;11.02;;;5.00;;
28170;SDS011;15458;53.346;-1.688;2023-06-14T01:36:08;12.75;;;5.45;;
28170;SDS011;15458;53.346;-1.688;2023-06-14T01:38:34;13.35;;;5.20;;
28170;SDS011;15458;53.346;-1.688;2023-06-14T01:41:02;10.55;;;4.90;;
28170;SDS011;15458;53.346;-1.688;2023-06-14T01:43:29;7.38;;;4.50;;
28170;SDS011;15458;53.346;-1.688;2023-06-14T01:45:57;10.05;;;4.63;;
28170;SDS011;15458;53.346;-1.688;2023-06-14T01:48:24;9.43;;;5.05;;
28170;SDS011;15458;53.346;-1.688;2023-06-14T01:50:49;8.77;;;4.45;;
28170;SDS011;15458;53.346;-1.688;2023-06-14T01:53:15;8.32;;;4.72;;
28170;SDS011;15458;53.346;-1.688;2023-06-14T01:55:41;14.48;;;4.90;;
28170;SDS011;15458;53.346;-1.688;2023-06-14T01:58:08;10.38;;;4.68;;
28170;SDS011;15458;53.346;-1.688;2023-06-14T02:00:35;11.02;;;5.10;;
28170;SDS011;15458;53.346;-1.688;2023-06-14T02:03:01;10.77;;;4.97;;
28170;SDS011;15458;53.346;-1.688;2023-06-14T02:05:27;11.30;;;5.07;;
28170;SDS011;15458;53.346;-1.688;2023-06-14T02:07:52;11.35;;;4.72;;
28170;SDS011;15458;53.346;-1.688;2023-06-14T02:10:18;13.60;;;4.55;;
28170;SDS011;15458;53.346;-1.688;2023-06-14T02:12:45;15.27;;;4.80;;
28170;SDS011;15458;53.346;-1.688;2023-06-14T02:15:11;8.88;;;4.53;;
28170;SDS011;15458;53.346;-1.688;2023-06-14T02:17:44;10.65;;;4.53;;
28170;SDS011;15458;53.346;-1.688;2023-06-14T02:20:14;10.68;;;4.53;;
28170;SDS011;15458;53.346;-1.688;2023-06-14T02:22:40;6.82;;;4.22;;
28170;SDS011;15458;53.346;-1.688;2023-06-14T02:25:06;7.03;;;3.42;;
28170;SDS011;15458;53.346;-1.688;2023-06-14T02:27:32;9.93;;;3.47;;
28170;SDS011;15458;53.346;-1.688;2023-06-14T02:29:58;8.93;;;3.95;;
28170;SDS011;15458;53.346;-1.688;2023-06-14T02:32:25;8.25;;;3.63;;
28170;SDS011;15458;53.346;-1.688;2023-06-14T02:34:52;6.28;;;3.15;;
28170;SDS011;15458;53.346;-1.688;2023-06-14T02:37:18;5.97;;;3.42;;
28170;SDS011;15458;53.346;-1.688;2023-06-14T02:39:44;8.52;;;3.00;;
28170;SDS011;15458;53.346;-1.688;2023-06-14T02:42:10;6.95;;;3.20;;
28170;SDS011;15458;53.346;-1.688;2023-06-14T02:44:36;9.38;;;3.72;;
28170;SDS011;15458;53.346;-1.688;2023-06-14T02:47:01;7.30;;;3.30;;
28170;SDS011;15458;53.346;-1.688;2023-06-14T02:49:28;8.23;;;3.50;;
28170;SDS011;15458;53.346;-1.688;2023-06-14T02:51:54;9.65;;;3.58;;
28170;SDS011;15458;53.346;-1.688;2023-06-14T02:54:20;7.55;;;3.95;;
28170;SDS011;15458;53.346;-1.688;2023-06-14T02:56:46;8.60;;;3.22;;
28170;SDS011;15458;53.346;-1.688;2023-06-14T02:59:11;7.88;;;2.78;;
28170;SDS011;15458;53.346;-1.688;2023-06-14T03:01:38;9.48;;;3.38;;
28170;SDS011;15458;53.346;-1.688;2023-06-14T03:04:06;6.80;;;2.95;;
28170;SDS011;15458;53.346;-1.688;2023-06-14T03:06:32;6.10;;;2.85;;
28170;SDS011;15458;53.346;-1.688;2023-06-14T03:08:58;5.40;;;3.10;;
28170;SDS011;15458;53.346;-1.688;2023-06-14T03:11:26;5.82;;;2.70;;
28170;SDS011;15458;53.346;-1.688;2023-06-14T03:13:52;7.10;;;2.53;;
28170;SDS011;15458;53.346;-1.688;2023-06-14T03:16:18;7.22;;;2.67;;
28170;SDS011;15458;53.346;-1.688;2023-06-14T03:18:46;7.88;;;2.30;;
28170;SDS011;15458;53.346;-1.688;2023-06-14T03:21:13;8.95;;;2.47;;
28170;SDS011;15458;53.346;-1.688;2023-06-14T03:23:41;5.78;;;2.80;;
28170;SDS011;15458;53.346;-1.688;2023-06-14T03:26:07;6.50;;;2.60;;
28170;SDS011;15458;53.346;-1.688;2023-06-14T03:28:33;6.80;;;2.90;;
28170;SDS011;15458;53.346;-1.688;2023-06-14T03:30:59;7.57;;;2.83;;
28170;SDS011;15458;53.346;-1.688;2023-06-14T03:33:24;4.75;;;2.88;;
28170;SDS011;15458;53.346;-1.688;2023-06-14T03:35:50;6.22;;;2.80;;
28170;SDS011;15458;53.346;-1.688;2023-06-14T03:38:17;6.95;;;2.95;;
28170;SDS011;15458;53.346;-1.688;2023-06-14T03:40:42;10.70;;;2.80;;
28170;SDS011;15458;53.346;-1.688;2023-06-14T03:43:09;8.73;;;3.13;;
28170;SDS011;15458;53.346;-1.688;2023-06-14T03:45:35;7.57;;;2.63;;
28170;SDS011;15458;53.346;-1.688;2023-06-14T03:48:01;5.50;;;3.08;;
28170;SDS011;15458;53.346;-1.688;2023-06-14T03:50:27;6.82;;;2.95;;
28170;SDS011;15458;53.346;-1.688;2023-06-14T03:52:53;7.40;;;2.72;;
28170;SDS011;15458;53.346;-1.688;2023-06-14T03:55:19;6.32;;;3.03;;
28170;SDS011;15458;53.346;-1.688;2023-06-14T03:57:45;4.88;;;2.75;;
28170;SDS011;15458;53.346;-1.688;2023-06-14T04:00:10;6.15;;;3.20;;
28170;SDS011;15458;53.346;-1.688;2023-06-14T04:02:37;5.72;;;2.95;;
28170;SDS011;15458;53.346;-1.688;2023-06-14T04:05:03;4.68;;;2.60;;
28170;SDS011;15458;53.346;-1.688;2023-06-14T04:07:30;8.95;;;3.05;;
28170;SDS011;15458;53.346;-1.688;2023-06-14T04:09:55;5.60;;;3.00;;
28170;SDS011;15458;53.346;-1.688;2023-06-14T04:12:21;6.68;;;3.30;;
28170;SDS011;15458;53.346;-1.688;2023-06-14T04:14:47;6.40;;;3.13;;
28170;SDS011;15458;53.346;-1.688;2023-06-14T04:17:12;7.38;;;3.13;;
28170;SDS011;15458;53.346;-1.688;2023-06-14T04:19:38;7.22;;;3.10;;
28170;SDS011;15458;53.346;-1.688;2023-06-14T04:22:04;5.75;;;2.92;;
28170;SDS011;15458;53.346;-1.688;2023-06-14T04:24:30;7.43;;;3.03;;
28170;SDS011;15458;53.346;-1.688;2023-06-14T04:26:59;7.22;;;3.00;;
28170;SDS011;15458;53.346;-1.688;2023-06-14T04:29:28;6.10;;;3.30;;
28170;SDS011;15458;53.346;-1.688;2023-06-14T04:31:54;6.78;;;3.13;;
28170;SDS011;15458;53.346;-1.688;2023-06-14T04:34:24;10.57;;;3.70;;
28170;SDS011;15458;53.346;-1.688;2023-06-14T04:36:54;7.78;;;3.33;;
28170;SDS011;15458;53.346;-1.688;2023-06-14T04:39:24;8.82;;;3.25;;
28170;SDS011;15458;53.346;-1.688;2023-06-14T04:41:51;7.63;;;3.45;;
28170;SDS011;15458;53.346;-1.688;2023-06-14T04:44:17;12.15;;;3.35;;
28170;SDS011;15458;53.346;-1.688;2023-06-14T04:46:44;10.25;;;3.47;;
28170;SDS011;15458;53.346;-1.688;2023-06-14T04:49:12;8.02;;;3.60;;
28170;SDS011;15458;53.346;-1.688;2023-06-14T04:51:39;10.45;;;3.30;;
28170;SDS011;15458;53.346;-1.688;2023-06-14T04:54:05;5.40;;;2.88;;
28170;SDS011;15458;53.346;-1.688;2023-06-14T04:56:35;8.02;;;3.63;;
28170;SDS011;15458;53.346;-1.688;2023-06-14T04:59:02;9.00;;;3.38;;
28170;SDS011;15458;53.346;-1.688;2023-06-14T05:01:29;7.30;;;3.03;;
28170;SDS011;15458;53.346;-1.688;2023-06-14T05:03:56;8.88;;;3.38;;
28170;SDS011;15458;53.346;-1.688;2023-06-14T05:06:25;11.02;;;3.92;;
28170;SDS011;15458;53.346;-1.688;2023-06-14T05:08:54;9.35;;;2.88;;
28170;SDS011;15458;53.346;-1.688;2023-06-14T05:11:20;6.80;;;3.08;;
28170;SDS011;15458;53.346;-1.688;2023-06-14T05:13:45;8.18;;;3.20;;
28170;SDS011;15458;53.346;-1.688;2023-06-14T05:16:11;9.07;;;3.60;;
28170;SDS011;15458;53.346;-1.688;2023-06-14T05:18:37;6.88;;;2.95;;
28170;SDS011;15458;53.346;-1.688;2023-06-14T05:21:05;3.95;;;2.30;;
28170;SDS011;15458;53.346;-1.688;2023-06-14T05:23:31;6.43;;;3.13;;
28170;SDS011;15458;53.346;-1.688;2023-06-14T05:25:57;7.60;;;3.17;;
28170;SDS011;15458;53.346;-1.688;2023-06-14T05:28:23;9.23;;;3.13;;
28170;SDS011;15458;53.346;-1.688;2023-06-14T05:30:48;4.18;;;2.60;;
28170;SDS011;15458;53.346;-1.688;2023-06-14T05:33:14;7.20;;;3.05;;
28170;SDS011;15458;53.346;-1.688;2023-06-14T05:35:40;7.20;;;2.78;;
28170;SDS011;15458;53.346;-1.688;2023-06-14T05:38:06;5.57;;;2.92;;
28170;SDS011;15458;53.346;-1.688;2023-06-14T05:40:32;7.57;;;3.30;;
28170;SDS011;15458;53.346;-1.688;2023-06-14T05:42:58;5.70;;;3.53;;
28170;SDS011;15458;53.346;-1.688;2023-06-14T05:45:24;5.32;;;2.88;;
28170;SDS011;15458;53.346;-1.688;2023-06-14T05:47:49;10.48;;;3.58;;
28170;SDS011;15458;53.346;-1.688;2023-06-14T05:50:15;5.60;;;2.80;;
28170;SDS011;15458;53.346;-1.688;2023-06-14T05:52:41;8.35;;;2.90;;
28170;SDS011;15458;53.346;-1.688;2023-06-14T05:55:07;9.30;;;3.10;;
28170;SDS011;15458;53.346;-1.688;2023-06-14T05:57:33;5.05;;;3.00;;
28170;SDS011;15458;53.346;-1.688;2023-06-14T05:59:58;9.98;;;3.10;;
28170;SDS011;15458;53.346;-1.688;2023-06-14T06:02:24;9.75;;;3.72;;
28170;SDS011;15458;53.346;-1.688;2023-06-14T06:04:49;12.35;;;3.25;;
28170;SDS011;15458;53.346;-1.688;2023-06-14T06:07:15;12.23;;;3.08;;
28170;SDS011;15458;53.346;-1.688;2023-06-14T06:09:41;7.75;;;3.25;;
28170;SDS011;15458;53.346;-1.688;2023-06-14T06:12:07;7.80;;;2.92;;
28170;SDS011;15458;53.346;-1.688;2023-06-14T06:14:33;9.65;;;2.85;;
28170;SDS011;15458;53.346;-1.688;2023-06-14T06:16:58;7.80;;;3.28;;
28170;SDS011;15458;53.346;-1.688;2023-06-14T06:19:24;11.35;;;3.70;;
28170;SDS011;15458;53.346;-1.688;2023-06-14T06:21:50;11.65;;;3.13;;
28170;SDS011;15458;53.346;-1.688;2023-06-14T06:24:16;7.00;;;3.40;;
28170;SDS011;15458;53.346;-1.688;2023-06-14T06:26:41;10.38;;;2.85;;
28170;SDS011;15458;53.346;-1.688;2023-06-14T06:29:07;7.47;;;3.03;;
28170;SDS011;15458;53.346;-1.688;2023-06-14T06:31:33;9.75;;;3.30;;
28170;SDS011;15458;53.346;-1.688;2023-06-14T06:33:58;10.85;;;3.30;;
28170;SDS011;15458;53.346;-1.688;2023-06-14T06:36:24;9.88;;;3.53;;
28170;SDS011;15458;53.346;-1.688;2023-06-14T06:38:50;8.25;;;3.08;;
28170;SDS011;15458;53.346;-1.688;2023-06-14T06:41:16;13.77;;;2.63;;
28170;SDS011;15458;53.346;-1.688;2023-06-14T06:43:41;11.00;;;3.20;;
28170;SDS011;15458;53.346;-1.688;2023-06-14T06:46:07;8.15;;;2.78;;
28170;SDS011;15458;53.346;-1.688;2023-06-14T06:48:33;11.52;;;3.00;;
28170;SDS011;15458;53.346;-1.688;2023-06-14T06:50:59;9.07;;;3.25;;
28170;SDS011;15458;53.346;-1.688;2023-06-14T06:53:24;10.25;;;3.28;;
28170;SDS011;15458;53.346;-1.688;2023-06-14T06:55:50;9.32;;;3.08;;
28170;SDS011;15458;53.346;-1.688;2023-06-14T06:58:16;12.05;;;3.78;;
28170;SDS011;15458;53.346;-1.688;2023-06-14T07:00:41;14.40;;;3.38;;
28170;SDS011;15458;53.346;-1.688;2023-06-14T07:03:07;7.90;;;2.85;;
28170;SDS011;15458;53.346;-1.688;2023-06-14T07:05:33;6.78;;;2.67;;
28170;SDS011;15458;53.346;-1.688;2023-06-14T07:08:00;10.90;;;3.15;;
28170;SDS011;15458;53.346;-1.688;2023-06-14T07:10:25;7.05;;;2.45;;
28170;SDS011;15458;53.346;-1.688;2023-06-14T07:12:51;12.02;;;3.08;;
28170;SDS011;15458;53.346;-1.688;2023-06-14T07:15:17;8.13;;;3.38;;
28170;SDS011;15458;53.346;-1.688;2023-06-14T07:17:42;11.05;;;3.05;;
28170;SDS011;15458;53.346;-1.688;2023-06-14T07:20:08;10.52;;;3.42;;
28170;SDS011;15458;53.346;-1.688;2023-06-14T07:22:37;10.55;;;3.22;;
28170;SDS011;15458;53.346;-1.688;2023-06-14T07:25:05;7.93;;;3.58;;
28170;SDS011;15458;53.346;-1.688;2023-06-14T07:27:33;10.90;;;3.55;;
28170;SDS011;15458;53.346;-1.688;2023-06-14T07:29:59;4.93;;;2.80;;
28170;SDS011;15458;53.346;-1.688;2023-06-14T07:32:24;14.68;;;4.35;;
28170;SDS011;15458;53.346;-1.688;2023-06-14T07:34:50;9.55;;;3.08;;
28170;SDS011;15458;53.346;-1.688;2023-06-14T07:37:15;10.77;;;3.53;;
28170;SDS011;15458;53.346;-1.688;2023-06-14T07:39:41;15.77;;;3.83;;
28170;SDS011;15458;53.346;-1.688;2023-06-14T07:42:07;7.53;;;3.30;;
28170;SDS011;15458;53.346;-1.688;2023-06-14T07:44:32;8.70;;;3.47;;
28170;SDS011;15458;53.346;-1.688;2023-06-14T07:46:58;13.05;;;3.50;;
28170;SDS011;15458;53.346;-1.688;2023-06-14T07:49:25;14.80;;;3.22;;
28170;SDS011;15458;53.346;-1.688;2023-06-14T07:51:51;6.95;;;3.03;;
28170;SDS011;15458;53.346;-1.688;2023-06-14T07:54:17;12.07;;;4.00;;
28170;SDS011;15458;53.346;-1.688;2023-06-14T07:56:43;10.68;;;3.45;;
28170;SDS011;15458;53.346;-1.688;2023-06-14T07:59:08;13.70;;;3.70;;
28170;SDS011;15458;53.346;-1.688;2023-06-14T08:01:34;9.50;;;3.33;;
28170;SDS011;15458;53.346;-1.688;2023-06-14T08:04:01;11.95;;;3.33;;
28170;SDS011;15458;53.346;-1.688;2023-06-14T08:06:26;9.57;;;3.15;;
28170;SDS011;15458;53.346;-1.688;2023-06-14T08:08:53;8.15;;;3.88;;
28170;SDS011;15458;53.346;-1.688;2023-06-14T08:11:22;11.27;;;2.85;;
28170;SDS011;15458;53.346;-1.688;2023-06-14T08:13:49;8.93;;;3.00;;
28170;SDS011;15458;53.346;-1.688;2023-06-14T08:16:14;12.88;;;3.17;;
28170;SDS011;15458;53.346;-1.688;2023-06-14T08:18:40;8.40;;;3.70;;
28170;SDS011;15458;53.346;-1.688;2023-06-14T08:21:05;6.03;;;2.97;;
28170;SDS011;15458;53.346;-1.688;2023-06-14T08:23:37;10.98;;;3.25;;
28170;SDS011;15458;53.346;-1.688;2023-06-14T08:26:04;12.15;;;3.60;;
28170;SDS011;15458;53.346;-1.688;2023-06-14T08:28:30;8.55;;;2.85;;
28170;SDS011;15458;53.346;-1.688;2023-06-14T08:30:56;8.25;;;3.10;;
28170;SDS011;15458;53.346;-1.688;2023-06-14T08:33:21;10.45;;;3.53;;
28170;SDS011;15458;53.346;-1.688;2023-06-14T08:35:47;11.63;;;3.40;;
28170;SDS011;15458;53.346;-1.688;2023-06-14T08:38:13;11.30;;;3.00;;
28170;SDS011;15458;53.346;-1.688;2023-06-14T08:40:38;13.57;;;2.90;;
28170;SDS011;15458;53.346;-1.688;2023-06-14T08:43:07;12.02;;;3.90;;
28170;SDS011;15458;53.346;-1.688;2023-06-14T08:45:32;9.43;;;2.97;;
28170;SDS011;15458;53.346;-1.688;2023-06-14T08:47:59;7.55;;;2.95;;
28170;SDS011;15458;53.346;-1.688;2023-06-14T08:50:25;9.00;;;3.05;;
28170;SDS011;15458;53.346;-1.688;2023-06-14T08:52:58;9.77;;;3.08;;
28170;SDS011;15458;53.346;-1.688;2023-06-14T08:55:28;11.18;;;3.22;;
28170;SDS011;15458;53.346;-1.688;2023-06-14T08:57:55;10.00;;;3.10;;
28170;SDS011;15458;53.346;-1.688;2023-06-14T09:00:22;9.52;;;3.35;;
28170;SDS011;15458;53.346;-1.688;2023-06-14T09:02:52;12.05;;;4.28;;
28170;SDS011;15458;53.346;-1.688;2023-06-14T09:05:25;15.38;;;3.75;;
28170;SDS011;15458;53.346;-1.688;2023-06-14T09:07:51;10.07;;;3.35;;
28170;SDS011;15458;53.346;-1.688;2023-06-14T09:10:20;6.57;;;3.20;;
28170;SDS011;15458;53.346;-1.688;2023-06-14T09:12:46;14.43;;;3.95;;
28170;SDS011;15458;53.346;-1.688;2023-06-14T09:15:13;9.63;;;3.42;;
28170;SDS011;15458;53.346;-1.688;2023-06-14T09:17:39;12.13;;;3.72;;
28170;SDS011;15458;53.346;-1.688;2023-06-14T09:20:06;17.63;;;4.43;;
28170;SDS011;15458;53.346;-1.688;2023-06-14T09:22:36;10.07;;;3.35;;
28170;SDS011;15458;53.346;-1.688;2023-06-14T09:25:03;13.98;;;3.67;;
28170;SDS011;15458;53.346;-1.688;2023-06-14T09:27:29;13.07;;;3.35;;
28170;SDS011;15458;53.346;-1.688;2023-06-14T09:29:55;8.38;;;3.47;;
28170;SDS011;15458;53.346;-1.688;2023-06-14T09:32:21;13.38;;;4.03;;
28170;SDS011;15458;53.346;-1.688;2023-06-14T09:34:47;11.07;;;3.40;;
28170;SDS011;15458;53.346;-1.688;2023-06-14T09:37:13;16.90;;;3.88;;
28170;SDS011;15458;53.346;-1.688;2023-06-14T09:39:50;10.50;;;3.65;;
28170;SDS011;15458;53.346;-1.688;2023-06-14T09:42:17;6.38;;;3.65;;
28170;SDS011;15458;53.346;-1.688;2023-06-14T09:44:45;10.48;;;3.85;;
28170;SDS011;15458;53.346;-1.688;2023-06-14T09:47:14;11.70;;;3.20;;
28170;SDS011;15458;53.346;-1.688;2023-06-14T09:49:41;9.23;;;3.63;;
28170;SDS011;15458;53.346;-1.688;2023-06-14T09:52:09;12.93;;;4.03;;
28170;SDS011;15458;53.346;-1.688;2023-06-14T09:54:40;9.48;;;3.10;;
28170;SDS011;15458;53.346;-1.688;2023-06-14T09:57:12;12.15;;;3.45;;
28170;SDS011;15458;53.346;-1.688;2023-06-14T09:59:58;12.98;;;3.30;;
28170;SDS011;15458;53.346;-1.688;2023-06-14T10:02:29;10.02;;;3.42;;
28170;SDS011;15458;53.346;-1.688;2023-06-14T10:05:06;11.07;;;3.17;;
28170;SDS011;15458;53.346;-1.688;2023-06-14T10:07:40;13.50;;;3.25;;
28170;SDS011;15458;53.346;-1.688;2023-06-14T10:10:12;9.25;;;2.95;;
28170;SDS011;15458;53.346;-1.688;2023-06-14T10:12:38;16.70;;;3.15;;
28170;SDS011;15458;53.346;-1.688;2023-06-14T10:15:05;15.85;;;3.45;;
28170;SDS011;15458;53.346;-1.688;2023-06-14T10:17:47;10.20;;;3.10;;
28170;SDS011;15458;53.346;-1.688;2023-06-14T10:20:36;17.52;;;4.22;;
28170;SDS011;15458;53.346;-1.688;2023-06-14T10:23:22;13.88;;;3.50;;
28170;SDS011;15458;53.346;-1.688;2023-06-14T10:25:49;12.43;;;2.95;;
28170;SDS011;15458;53.346;-1.688;2023-06-14T10:28:19;14.20;;;4.03;;
28170;SDS011;15458;53.346;-1.688;2023-06-14T10:31:05;18.70;;;3.25;;
28170;SDS011;15458;53.346;-1.688;2023-06-14T10:33:32;13.83;;;3.10;;
28170;SDS011;15458;53.346;-1.688;2023-06-14T10:36:08;11.98;;;2.95;;
28170;SDS011;15458;53.346;-1.688;2023-06-14T10:38:35;7.03;;;2.53;;
28170;SDS011;15458;53.346;-1.688;2023-06-14T10:41:02;5.90;;;2.30;;
28170;SDS011;15458;53.346;-1.688;2023-06-14T10:43:30;9.77;;;2.60;;
28170;SDS011;15458;53.346;-1.688;2023-06-14T10:48:47;9.50;;;2.55;;
28170;SDS011;15458;53.346;-1.688;2023-06-14T10:51:20;8.45;;;2.80;;
28170;SDS011;15458;53.346;-1.688;2023-06-14T10:53:50;8.35;;;2.30;;
28170;SDS011;15458;53.346;-1.688;2023-06-14T10:56:32;10.18;;;2.80;;
28170;SDS011;15458;53.346;-1.688;2023-06-14T10:58:59;5.47;;;2.53;;
28170;SDS011;15458;53.346;-1.688;2023-06-14T11:01:38;10.90;;;2.58;;
28170;SDS011;15458;53.346;-1.688;2023-06-14T11:04:17;9.85;;;2.45;;
28170;SDS011;15458;53.346;-1.688;2023-06-14T11:06:49;5.95;;;3.40;;
28170;SDS011;15458;53.346;-1.688;2023-06-14T11:12:20;7.47;;;2.70;;
28170;SDS011;15458;53.346;-1.688;2023-06-14T11:14:47;6.55;;;2.30;;
28170;SDS011;15458;53.346;-1.688;2023-06-14T11:17:13;11.88;;;2.40;;
28170;SDS011;15458;53.346;-1.688;2023-06-14T11:19:39;5.88;;;2.40;;
28170;SDS011;15458;53.346;-1.688;2023-06-14T11:22:05;7.93;;;2.25;;
28170;SDS011;15458;53.346;-1.688;2023-06-14T11:24:32;8.95;;;2.28;;
28170;SDS011;15458;53.346;-1.688;2023-06-14T11:26:58;8.23;;;2.72;;
28170;SDS011;15458;53.346;-1.688;2023-06-14T11:29:24;5.65;;;2.65;;
28170;SDS011;15458;53.346;-1.688;2023-06-14T11:31:50;8.25;;;2.47;;
28170;SDS011;15458;53.346;-1.688;2023-06-14T11:34:15;10.55;;;2.40;;
28170;SDS011;15458;53.346;-1.688;2023-06-14T11:36:42;6.50;;;2.47;;
28170;SDS011;15458;53.346;-1.688;2023-06-14T11:39:08;6.32;;;2.58;;
28170;SDS011;15458;53.346;-1.688;2023-06-14T11:41:52;7.05;;;2.60;;
28170;SDS011;15458;53.346;-1.688;2023-06-14T11:44:17;6.50;;;2.30;;
28170;SDS011;15458;53.346;-1.688;2023-06-14T11:46:43;6.47;;;2.60;;
28170;SDS011;15458;53.346;-1.688;2023-06-14T11:49:09;4.72;;;2.17;;
28170;SDS011;15458;53.346;-1.688;2023-06-14T11:51:35;7.60;;;2.50;;
28170;SDS011;15458;53.346;-1.688;2023-06-14T11:54:02;6.13;;;2.58;;
28170;SDS011;15458;53.346;-1.688;2023-06-14T11:56:29;7.57;;;2.15;;
28170;SDS011;15458;53.346;-1.688;2023-06-14T11:58:56;8.43;;;2.45;;
28170;SDS011;15458;53.346;-1.688;2023-06-14T12:01:23;4.30;;;2.65;;
28170;SDS011;15458;53.346;-1.688;2023-06-14T12:03:49;13.75;;;2.80;;
28170;SDS011;15458;53.346;-1.688;2023-06-14T12:06:15;7.05;;;2.78;;
28170;SDS011;15458;53.346;-1.688;2023-06-14T12:08:43;6.53;;;2.75;;
28170;SDS011;15458;53.346;-1.688;2023-06-14T12:11:10;6.78;;;2.67;;
28170;SDS011;15458;53.346;-1.688;2023-06-14T12:13:39;6.63;;;2.10;;
28170;SDS011;15458;53.346;-1.688;2023-06-14T12:16:06;11.27;;;2.50;;
28170;SDS011;15458;53.346;-1.688;2023-06-14T12:18:34;7.28;;;2.50;;
28170;SDS011;15458;53.346;-1.688;2023-06-14T12:21:02;9.23;;;2.40;;
28170;SDS011;15458;53.346;-1.688;2023-06-14T12:23:48;8.57;;;2.50;;
28170;SDS011;15458;53.346;-1.688;2023-06-14T12:26:18;10.05;;;2.58;;
28170;SDS011;15458;53.346;-1.688;2023-06-14T12:28:45;4.90;;;2.20;;
28170;SDS011;15458;53.346;-1.688;2023-06-14T12:31:12;8.57;;;2.42;;
28170;SDS011;15458;53.346;-1.688;2023-06-14T12:33:39;5.50;;;2.33;;
28170;SDS011;15458;53.346;-1.688;2023-06-14T12:36:09;8.65;;;2.75;;
28170;SDS011;15458;53.346;-1.688;2023-06-14T12:38:36;9.70;;;2.75;;
28170;SDS011;15458;53.346;-1.688;2023-06-14T12:41:02;4.07;;;2.08;;
28170;SDS011;15458;53.346;-1.688;2023-06-14T12:43:28;7.70;;;2.58;;
28170;SDS011;15458;53.346;-1.688;2023-06-14T12:45:54;6.53;;;2.60;;
28170;SDS011;15458;53.346;-1.688;2023-06-14T12:48:20;7.68;;;2.58;;
28170;SDS011;15458;53.346;-1.688;2023-06-14T12:50:47;6.40;;;2.45;;
28170;SDS011;15458;53.346;-1.688;2023-06-14T12:53:13;7.20;;;2.65;;
28170;SDS011;15458;53.346;-1.688;2023-06-14T12:55:39;5.68;;;2.65;;
28170;SDS011;15458;53.346;-1.688;2023-06-14T12:58:04;11.15;;;2.30;;
28170;SDS011;15458;53.346;-1.688;2023-06-14T13:00:30;9.23;;;3.03;;
28170;SDS011;15458;53.346;-1.688;2023-06-14T13:02:56;10.82;;;2.80;;
28170;SDS011;15458;53.346;-1.688;2023-06-14T13:05:22;9.20;;;2.33;;
28170;SDS011;15458;53.346;-1.688;2023-06-14T13:07:49;5.50;;;2.20;;
28170;SDS011;15458;53.346;-1.688;2023-06-14T13:10:17;11.20;;;2.50;;
28170;SDS011;15458;53.346;-1.688;2023-06-14T13:12:45;7.70;;;2.17;;
28170;SDS011;15458;53.346;-1.688;2023-06-14T13:15:10;10.73;;;2.53;;
28170;SDS011;15458;53.346;-1.688;2023-06-14T13:17:36;3.72;;;1.98;;
28170;SDS011;15458;53.346;-1.688;2023-06-14T13:20:06;7.13;;;2.50;;
28170;SDS011;15458;53.346;-1.688;2023-06-14T13:22:36;5.90;;;2.72;;
28170;SDS011;15458;53.346;-1.688;2023-06-14T13:25:02;4.85;;;2.35;;
28170;SDS011;15458;53.346;-1.688;2023-06-14T13:27:28;3.58;;;2.10;;
28170;SDS011;15458;53.346;-1.688;2023-06-14T13:29:55;9.80;;;2.38;;
28170;SDS011;15458;53.346;-1.688;2023-06-14T13:32:21;4.15;;;2.50;;
28170;SDS011;15458;53.346;-1.688;2023-06-14T13:34:47;8.30;;;3.13;;
28170;SDS011;15458;53.346;-1.688;2023-06-14T13:37:13;7.82;;;2.30;;
28170;SDS011;15458;53.346;-1.688;2023-06-14T13:39:39;8.52;;;2.90;;
28170;SDS011;15458;53.346;-1.688;2023-06-14T13:42:05;8.50;;;2.70;;
28170;SDS011;15458;53.346;-1.688;2023-06-14T13:44:31;5.25;;;2.47;;
28170;SDS011;15458;53.346;-1.688;2023-06-14T13:46:56;7.18;;;3.38;;
28170;SDS011;15458;53.346;-1.688;2023-06-14T13:49:22;6.47;;;2.72;;
28170;SDS011;15458;53.346;-1.688;2023-06-14T13:51:48;4.03;;;2.38;;
28170;SDS011;15458;53.346;-1.688;2023-06-14T13:54:14;7.93;;;2.58;;
28170;SDS011;15458;53.346;-1.688;2023-06-14T13:56:43;7.30;;;2.20;;
28170;SDS011;15458;53.346;-1.688;2023-06-14T13:59:09;8.50;;;2.35;;
28170;SDS011;15458;53.346;-1.688;2023-06-14T14:01:37;6.38;;;1.95;;
28170;SDS011;15458;53.346;-1.688;2023-06-14T14:04:03;8.05;;;2.55;;
28170;SDS011;15458;53.346;-1.688;2023-06-14T14:06:29;13.43;;;2.13;;
28170;SDS011;15458;53.346;-1.688;2023-06-14T14:08:56;4.13;;;2.28;;
28170;SDS011;15458;53.346;-1.688;2023-06-14T14:11:22;7.85;;;2.65;;
28170;SDS011;15458;53.346;-1.688;2023-06-14T14:13:47;5.50;;;2.70;;
28170;SDS011;15458;53.346;-1.688;2023-06-14T14:16:13;7.40;;;2.10;;
28170;SDS011;15458;53.346;-1.688;2023-06-14T14:18:39;7.75;;;2.30;;
28170;SDS011;15458;53.346;-1.688;2023-06-14T14:21:05;5.57;;;2.17;;
28170;SDS011;15458;53.346;-1.688;2023-06-14T14:23:31;4.07;;;2.20;;
28170;SDS011;15458;53.346;-1.688;2023-06-14T14:25:56;6.95;;;2.67;;
28170;SDS011;15458;53.346;-1.688;2023-06-14T14:28:22;5.50;;;2.33;;
28170;SDS011;15458;53.346;-1.688;2023-06-14T14:30:48;4.13;;;2.10;;
28170;SDS011;15458;53.346;-1.688;2023-06-14T14:33:14;12.95;;;2.08;;
28170;SDS011;15458;53.346;-1.688;2023-06-14T14:35:44;3.40;;;1.67;;